Météo Cheval Rigon

 

Relevés d'aujourd'hui



 

24/6/18
Time         Wind Dir   Wind Spd  Wind Gust   Humidity       Temp   Tot Rain Wind Chill  Dew Point   Barom SL Humidity R Temp Out R Tot Rain R   WindCh R   Dew Pt R SL Barom R Temp Out H Temp Out L  DailyRain   HourRain   24HrRain   RainRate  MonthRain
                          km/hr      km/hr          %         C         mm         C         C         mb       %/hr      C/hr      mm/hr      C/hr      C/hr      mm/hr         C         C         mm         mm         mm      mm/hr         mm
0:00              348          0          0         76       13.7     571.80       13.7        9.5    1021.95        0.1      -0.57      0.000      -0.57      -0.51     -0.035       13.7       13.7       0.00       0.00       0.00      0.000     116.00
0:15              348          0          0         76       13.5     571.80       13.5        9.4    1021.95        0.1      -0.59      0.000      -0.59      -0.53     -0.038       13.7       13.5       0.00       0.00       0.00      0.000     116.00
0:30              348          0          0         76       13.3     571.80       13.3        9.2    1021.89        0.1      -0.61      0.000      -0.61      -0.56     -0.091       13.7       13.3       0.00       0.00       0.00      0.000     116.00
0:45              348          0          0         77       13.1     571.80       13.1        9.2    1021.82        0.9      -0.67      0.000      -0.67      -0.47     -0.126       13.7       13.1       0.00       0.00       0.00      0.000     116.00
1:00              348          0          0         78       13.0     571.80       13.0        9.3    1021.75        1.5      -0.62      0.000      -0.62      -0.30     -0.155       13.7       13.0       0.00       0.00       0.00      0.000     116.00
1:15              348          0          0         79       12.9     571.80       12.9        9.4    1021.61        2.0      -0.53      0.000      -0.53      -0.12     -0.244       13.7       12.9       0.00       0.00       0.00      0.000     116.00
1:30              348          0          0         79       12.8     571.80       12.8        9.3    1021.61        1.6      -0.51      0.000      -0.51      -0.19     -0.189       13.7       12.8       0.00       0.00       0.00      0.000     116.00
1:45              348          0          0         80       12.7     571.80       12.7        9.4    1021.45        2.0      -0.50      0.000      -0.50      -0.10     -0.288       13.7       12.7       0.00       0.00       0.00      0.000     116.00
2:00              348          0          0         80       12.7     571.80       12.7        9.3    1021.28        1.6      -0.44      0.000      -0.44      -0.12     -0.373       13.7       12.7       0.00       0.00       0.00      0.000     116.00
2:15              360          0          2         80       12.4     571.80       12.4        9.1    1021.14        1.2      -0.54      0.000      -0.54      -0.29     -0.424       13.7       12.4       0.00       0.00       0.00      0.000     116.00
2:30              360          0          0         81       12.2     571.80       12.2        9.0    1021.11        1.9      -0.67      0.000      -0.67      -0.29     -0.356       13.7       12.2       0.00       0.00       0.00      0.000     116.00
2:45              360          0          0         82       11.8     571.80       11.8        8.9    1021.07        2.4      -0.81      0.000      -0.81      -0.34     -0.315       13.7       11.8       0.00       0.00       0.00      0.000     116.00
3:00              360          0          3         82       11.8     571.80       11.8        8.9    1020.90        1.9      -0.63      0.000      -0.63      -0.26     -0.386       13.7       11.8       0.00       0.00       0.00      0.000     116.00
3:15              360          0          0         82       11.9     571.80       11.9        8.9    1020.77        1.5      -0.44      0.000      -0.44      -0.16     -0.418       13.7       11.8       0.00       0.00       0.00      0.000     116.00
3:30              360          0          0         83       11.7     571.80       11.7        8.9    1020.73        2.1      -0.49      0.000      -0.49      -0.09     -0.353       13.7       11.7       0.00       0.00       0.00      0.000     116.00
3:45              360          0          0         83       11.6     571.80       11.6        8.8    1020.63        1.7      -0.53      0.000      -0.53      -0.22     -0.369       13.7       11.6       0.00       0.00       0.00      0.000     116.00
4:00              360          0          0         84       11.4     571.80       11.4        8.8    1020.53        2.2      -0.52      0.000      -0.52      -0.11     -0.375       13.7       11.4       0.00       0.00       0.00      0.000     116.00
4:15              360          0          0         84       11.3     571.80       11.3        8.7    1020.29        1.7      -0.55      0.000      -0.55      -0.23     -0.510       13.7       11.3       0.00       0.00       0.00      0.000     116.00
4:30              360          0          0         84       11.1     571.80       11.1        8.5    1020.09        1.3      -0.58      0.000      -0.58      -0.33     -0.577       13.7       11.1       0.00       0.00       0.00      0.000     116.00
4:45              360          0          0         85       10.8     571.80       10.8        8.4    1019.82        1.9      -0.75      0.000      -0.75      -0.40     -0.693       13.7       10.8       0.00       0.00       0.00      0.000     116.00
5:00              360          0          0         86       10.6     571.80       10.6        8.3    1019.65        2.4      -0.77      0.000      -0.77      -0.33     -0.692       13.7       10.6       0.00       0.00       0.00      0.000     116.00
5:15              360          0          0         86       10.5     571.80       10.5        8.3    1019.68        1.9      -0.65      0.000      -0.65      -0.31     -0.507       13.7       10.5       0.00       0.00       0.00      0.000     116.00
5:30              360          0          0         87       10.3     571.80       10.3        8.3    1019.75        2.4      -0.65      0.000      -0.65      -0.23     -0.342       13.7       10.3       0.00       0.00       0.00      0.000     116.00
5:45              360          0          0         87       10.3     571.80       10.3        8.2    1019.85        1.8      -0.55      0.000      -0.55      -0.22     -0.162       13.7       10.3       0.00       0.00       0.00      0.000     116.00
6:00              360          0          0         87       10.2     571.80       10.2        8.2    1019.96        1.4      -0.48      0.000      -0.48      -0.23     -0.030       13.7       10.2       0.00       0.00       0.00      0.000     116.00
6:15              360          0          0         88       10.3     571.80       10.3        8.4    1020.23        1.9      -0.32      0.000      -0.32       0.02      0.218       13.7       10.2       0.00       0.00       0.00      0.000     116.00
6:30              360          0          0         89       10.5     571.80       10.5        8.8    1020.26        2.5      -0.04      0.000      -0.04       0.38      0.202       13.7       10.2       0.00       0.00       0.00      0.000     116.00
6:45              360          0          0         89       10.8     571.80       10.8        9.1    1020.12        1.9       0.26      0.000       0.26       0.59      0.040       13.7       10.2       0.00       0.00       0.00      0.000     116.00
7:00              360          0          0         89       11.1     571.80       11.1        9.3    1020.06        1.5       0.40      0.000       0.40       0.65     -0.032       13.7       10.2       0.00       0.00       0.00      0.000     116.00
7:15              360          0          0         89       11.3     571.80       11.3        9.5    1020.16        1.1       0.51      0.000       0.51       0.68      0.056       13.7       10.2       0.00       0.00       0.00      0.000     116.00
7:30              360          0          0         89       11.5     571.80       11.5        9.8    1020.23        0.8       0.59      0.000       0.59       0.73      0.098       13.7       10.2       0.00       0.00       0.00      0.000     116.00
7:45              360          0          0         89       11.7     571.80       11.7       10.0    1020.36        0.7       0.66      0.000       0.66       0.76      0.202       13.7       10.2       0.00       0.00       0.00      0.000     116.00
8:00              360          0          0         89       12.0     571.80       12.0       10.2    1020.23        0.5       0.75      0.000       0.75       0.83      0.035       13.7       10.2       0.00       0.00       0.00      0.000     116.00

 


 

 

 

Retour accueil